createdAt,value
2019-01-31T00:01:48.534Z,98937.26
2019-01-31T00:05:00.922Z,98932.33
2019-01-31T00:08:21.093Z,98931.84
2019-01-31T00:11:17.350Z,98929.95
2019-01-31T00:14:11.367Z,98929.14
2019-01-31T00:17:32.029Z,98931.70
2019-01-31T00:20:38.112Z,98930.89
2019-01-31T00:23:50.290Z,98933.94
2019-01-31T00:26:43.550Z,98935.09
2019-01-31T00:29:33.413Z,98935.31
2019-01-31T00:32:45.473Z,98935.91
2019-01-31T00:35:51.362Z,98934.02
2019-01-31T00:38:33.008Z,98938.51
2019-01-31T00:41:39.477Z,98939.66
2019-01-31T00:44:23.618Z,98938.94
2019-01-31T00:46:58.648Z,98933.16
2019-01-31T00:49:51.622Z,98939.88
2019-01-31T00:53:09.941Z,98937.71
2019-01-31T00:56:03.961Z,98938.36
2019-01-31T00:58:42.535Z,98937.05
2019-01-31T01:01:51.816Z,98946.36
2019-01-31T01:05:07.058Z,98945.28
2019-01-31T01:08:02.746Z,98949.17
2019-01-31T01:10:59.144Z,98944.48
2019-01-31T01:13:50.509Z,98948.38
2019-01-31T01:16:26.974Z,98944.99
2019-01-31T01:19:57.441Z,98944.70
2019-01-31T01:22:50.816Z,98943.47
2019-01-31T01:26:15.186Z,98939.72
2019-01-31T01:29:25.444Z,98951.77
2019-01-31T01:32:18.246Z,98950.50
2019-01-31T01:35:20.958Z,98947.45
2019-01-31T01:38:25.813Z,98945.11
2019-01-31T01:41:16.177Z,98942.23
2019-01-31T01:44:43.359Z,98942.03
2019-01-31T01:47:36.923Z,98942.34
2019-01-31T01:50:47.924Z,98943.28
2019-01-31T01:53:57.137Z,98937.06
2019-01-31T01:56:33.675Z,98938.24
2019-01-31T01:59:07.796Z,98940.39
2019-01-31T02:02:19.964Z,98942.31
2019-01-31T02:05:36.148Z,98940.06
2019-01-31T02:08:43.783Z,98946.14
2019-01-31T02:11:36.785Z,98943.08
2019-01-31T02:14:44.700Z,98940.05
2019-01-31T02:17:19.160Z,98939.68
2019-01-31T02:20:27.102Z,98939.31
2019-01-31T02:23:18.973Z,98933.89
2019-01-31T02:26:02.712Z,98930.00
2019-01-31T02:29:08.955Z,98925.30
2019-01-31T02:32:04.582Z,98919.80
2019-01-31T02:35:13.073Z,98914.00
2019-01-31T02:38:09.986Z,98916.31
2019-01-31T02:41:18.844Z,98909.74
2019-01-31T02:44:45.661Z,98911.08
2019-01-31T02:47:40.036Z,98910.48
2019-01-31T02:50:23.083Z,98914.08
2019-01-31T02:53:01.883Z,98914.89
2019-01-31T02:56:26.396Z,98919.55
2019-01-31T02:59:29.494Z,98909.38
2019-01-31T03:02:22.687Z,98903.11
2019-01-31T03:05:16.335Z,98905.86
2019-01-31T03:08:27.665Z,98900.95
2019-01-31T03:11:24.775Z,98899.91
2019-01-31T03:14:14.958Z,98901.77
2019-01-31T03:17:04.315Z,98899.14
2019-01-31T03:19:58.043Z,98906.47
2019-01-31T03:22:47.896Z,98904.76
2019-01-31T03:25:34.636Z,98904.59
2019-01-31T03:28:23.854Z,98902.85
2019-01-31T03:31:36.305Z,98902.25
2019-01-31T03:34:34.872Z,98905.89
2019-01-31T03:37:53.018Z,98898.77
2019-01-31T03:40:45.449Z,98899.09
2019-01-31T03:43:44.661Z,98904.73
2019-01-31T03:46:27.421Z,98899.50
2019-01-31T03:49:29.954Z,98897.19
2019-01-31T03:52:38.254Z,98899.34
2019-01-31T03:55:50.334Z,98898.33
2019-01-31T03:58:58.253Z,98896.94
2019-01-31T04:01:57.514Z,98906.31
2019-01-31T04:04:38.582Z,98899.36
2019-01-31T04:07:06.546Z,98901.58
2019-01-31T04:09:34.424Z,98892.18
2019-01-31T04:12:02.369Z,98894.97
2019-01-31T04:14:31.118Z,98893.28
2019-01-31T04:16:59.223Z,98897.75
2019-01-31T04:19:27.222Z,98887.03
2019-01-31T04:21:57.397Z,98896.63
2019-01-31T04:24:25.571Z,98901.19
2019-01-31T04:26:53.434Z,98896.18
2019-01-31T04:29:21.286Z,98883.88
2019-01-31T04:31:49.306Z,98892.58
2019-01-31T04:34:17.203Z,98888.77
2019-01-31T04:36:45.126Z,98892.43
2019-01-31T04:39:13.119Z,98888.23
2019-01-31T04:41:41.159Z,98888.72
2019-01-31T04:44:09.142Z,98884.10
2019-01-31T04:46:37.028Z,98890.41
2019-01-31T04:49:05.021Z,98887.89
2019-01-31T04:51:32.963Z,98888.91
2019-01-31T04:54:00.801Z,98893.95
2019-01-31T04:56:28.643Z,98892.94
2019-01-31T04:58:56.507Z,98897.28
2019-01-31T05:01:26.502Z,98889.56
2019-01-31T05:03:54.371Z,98894.38
2019-01-31T05:06:22.321Z,98895.42
2019-01-31T05:08:50.213Z,98890.13
2019-01-31T05:11:17.968Z,98890.33
2019-01-31T05:13:45.886Z,98890.18
2019-01-31T05:16:13.738Z,98892.23
2019-01-31T05:18:41.582Z,98889.09
2019-01-31T05:21:09.556Z,98885.81
2019-01-31T05:23:37.305Z,98885.37
2019-01-31T05:26:05.372Z,98887.98
2019-01-31T05:28:33.246Z,98888.72
2019-01-31T05:31:01.157Z,98886.13
2019-01-31T05:33:29.729Z,98886.58
2019-01-31T05:35:57.492Z,98892.47
2019-01-31T05:38:25.448Z,98892.52
2019-01-31T05:40:55.559Z,98891.39
2019-01-31T05:43:23.267Z,98891.59
2019-01-31T05:45:51.216Z,98895.47
2019-01-31T05:48:19.192Z,98898.15
2019-01-31T05:50:47.097Z,98894.06
2019-01-31T05:53:15.651Z,98895.77
2019-01-31T05:55:46.782Z,98898.08
2019-01-31T05:58:14.870Z,98898.69
2019-01-31T06:00:42.728Z,98902.94
2019-01-31T06:03:10.581Z,98905.17
2019-01-31T06:05:38.624Z,98903.31
2019-01-31T06:08:06.600Z,98908.29
2019-01-31T06:10:34.596Z,98903.11
2019-01-31T06:13:02.860Z,98911.98
2019-01-31T06:15:30.705Z,98906.23
2019-01-31T06:17:58.725Z,98907.80
2019-01-31T06:20:26.715Z,98910.84
2019-01-31T06:22:54.615Z,98914.37
2019-01-31T06:25:22.505Z,98913.07
2019-01-31T06:27:50.594Z,98914.94
2019-01-31T06:30:18.585Z,98921.05
2019-01-31T06:32:46.865Z,98921.61
2019-01-31T06:35:15.076Z,98917.84
2019-01-31T06:37:42.947Z,98919.14
2019-01-31T06:40:15.817Z,98927.11
2019-01-31T06:42:43.779Z,98927.43
2019-01-31T06:45:14.461Z,98934.11
2019-01-31T06:47:42.500Z,98927.99
2019-01-31T06:50:10.660Z,98924.27
2019-01-31T06:52:39.384Z,98933.99
2019-01-31T06:55:08.928Z,98933.42
2019-01-31T06:57:36.963Z,98929.98
2019-01-31T07:00:07.900Z,98927.31
2019-01-31T07:02:35.690Z,98926.38
2019-01-31T07:05:04.478Z,98930.16
2019-01-31T07:07:32.478Z,98935.70
2019-01-31T07:10:00.320Z,98932.18
2019-01-31T07:12:28.273Z,98925.25
2019-01-31T07:14:56.237Z,98926.59
2019-01-31T07:17:24.059Z,98919.83
2019-01-31T07:19:52.051Z,98925.27
2019-01-31T07:22:19.931Z,98919.15
2019-01-31T07:24:47.969Z,98928.34
2019-01-31T07:27:15.886Z,98932.84
2019-01-31T07:29:43.848Z,98932.43
2019-01-31T07:32:11.691Z,98931.66
2019-01-31T07:34:39.578Z,98931.09
2019-01-31T07:37:07.521Z,98930.89
2019-01-31T07:39:35.407Z,98934.73
2019-01-31T07:42:03.512Z,98934.36
2019-01-31T07:44:33.204Z,98934.88
2019-01-31T07:47:02.362Z,98939.38
2019-01-31T07:49:30.272Z,98942.62
2019-01-31T07:51:58.203Z,98945.45
2019-01-31T07:54:25.997Z,98944.11
2019-01-31T07:56:54.585Z,98945.47
2019-01-31T07:59:22.535Z,98934.55
2019-01-31T08:01:50.512Z,98940.98
2019-01-31T08:04:18.537Z,98942.59
2019-01-31T08:06:46.519Z,98946.91
2019-01-31T08:09:14.429Z,98946.00
2019-01-31T08:11:52.436Z,98951.62
2019-01-31T08:14:13.144Z,98949.89
2019-01-31T08:16:41.177Z,98945.94
2019-01-31T08:19:09.013Z,98941.61
2019-01-31T08:21:37.064Z,98952.00
2019-01-31T08:24:05.049Z,98952.43
2019-01-31T08:26:32.810Z,98948.59
2019-01-31T08:29:00.780Z,98945.41
2019-01-31T08:31:33.651Z,98952.20
2019-01-31T08:34:01.502Z,98950.98
2019-01-31T08:36:29.373Z,98953.63
2019-01-31T08:38:57.182Z,98956.23
2019-01-31T08:41:25.311Z,98954.14
2019-01-31T08:43:53.308Z,98955.00
2019-01-31T08:46:21.309Z,98949.14
2019-01-31T08:48:49.188Z,98951.52
2019-01-31T08:51:17.116Z,98941.63
2019-01-31T08:53:45.260Z,98938.48
2019-01-31T08:56:13.061Z,98931.63
2019-01-31T08:58:41.516Z,98938.88
2019-01-31T09:01:09.490Z,98930.75
2019-01-31T09:03:38.079Z,98927.08
2019-01-31T09:06:06.560Z,98929.95
2019-01-31T09:08:34.463Z,98924.08
2019-01-31T09:11:03.021Z,98923.64
2019-01-31T09:13:31.046Z,98915.49
2019-01-31T09:15:58.935Z,98914.79
2019-01-31T09:18:26.999Z,98912.78
2019-01-31T09:21:05.882Z,98916.09
2019-01-31T09:24:11.307Z,98921.78
2019-01-31T09:27:20.982Z,98922.37
2019-01-31T09:30:33.432Z,98921.42
2019-01-31T09:33:39.022Z,98919.28
2019-01-31T09:37:06.469Z,98923.55
2019-01-31T09:40:14.237Z,98919.53
2019-01-31T09:43:24.804Z,98919.86
2019-01-31T09:46:38.343Z,98921.30
2019-01-31T09:49:36.778Z,98917.73
2019-01-31T09:52:51.310Z,98915.23
2019-01-31T09:55:56.509Z,98916.27
2019-01-31T09:58:34.695Z,98923.47
2019-01-31T10:01:42.734Z,98931.86
2019-01-31T10:04:26.907Z,98933.41
2019-01-31T10:07:32.248Z,98934.78
2019-01-31T10:10:55.291Z,98937.84
2019-01-31T10:14:02.368Z,98937.20
2019-01-31T10:17:10.740Z,98936.14
2019-01-31T10:19:58.747Z,98935.30
2019-01-31T10:22:48.030Z,98943.08
2019-01-31T10:25:53.428Z,98932.13
2019-01-31T10:28:57.241Z,98929.27
2019-01-31T10:31:53.590Z,98931.41
2019-01-31T10:34:33.944Z,98925.15
2019-01-31T10:37:39.461Z,98920.11
2019-01-31T10:40:36.022Z,98922.53
2019-01-31T10:43:41.352Z,98919.13
2019-01-31T10:46:43.358Z,98910.97
2019-01-31T10:49:31.159Z,98912.80
2019-01-31T10:52:30.193Z,98916.70
2019-01-31T10:55:40.134Z,98911.78
2019-01-31T10:58:40.201Z,98915.55
2019-01-31T11:01:34.345Z,98912.33
2019-01-31T11:04:42.486Z,98901.48
2019-01-31T11:07:37.913Z,98906.28
2019-01-31T11:10:32.458Z,98902.24
2019-01-31T11:13:49.132Z,98909.08
2019-01-31T11:16:43.399Z,98902.53
2019-01-31T11:19:58.352Z,98897.78
2019-01-31T11:23:04.902Z,98900.31
2019-01-31T11:26:10.179Z,98900.54
2019-01-31T11:29:07.161Z,98906.67
2019-01-31T11:32:07.883Z,98909.56
2019-01-31T11:34:56.350Z,98908.79
2019-01-31T11:38:17.982Z,98905.36
2019-01-31T11:41:13.864Z,98907.55
2019-01-31T11:44:10.637Z,98897.77
2019-01-31T11:46:53.884Z,98900.41
2019-01-31T11:49:46.136Z,98899.51
2019-01-31T11:52:50.464Z,98895.91
2019-01-31T11:55:32.618Z,98907.13
2019-01-31T11:58:43.900Z,98903.66
2019-01-31T12:01:11.952Z,98903.14
2019-01-31T12:03:39.901Z,98896.77
2019-01-31T12:06:08.462Z,98890.06
2019-01-31T12:08:36.497Z,98895.80
2019-01-31T12:11:05.050Z,98892.16
2019-01-31T12:13:33.111Z,98891.62
2019-01-31T12:16:00.982Z,98892.05
2019-01-31T12:18:28.929Z,98889.18
2019-01-31T12:20:58.142Z,98887.45
2019-01-31T12:23:25.926Z,98891.98
2019-01-31T12:25:53.886Z,98893.38
2019-01-31T12:28:22.666Z,98890.72
2019-01-31T12:30:50.655Z,98894.36
2019-01-31T12:33:18.680Z,98895.02
2019-01-31T12:35:46.534Z,98890.02
2019-01-31T12:38:14.588Z,98890.66
2019-01-31T12:40:42.577Z,98887.35
2019-01-31T12:43:10.628Z,98882.64
2019-01-31T12:45:38.535Z,98879.32
2019-01-31T12:48:06.513Z,98883.59
2019-01-31T12:50:34.571Z,98878.81
2019-01-31T12:53:02.731Z,98882.39
2019-01-31T12:55:30.766Z,98882.42
2019-01-31T12:57:58.755Z,98884.17
2019-01-31T13:00:28.576Z,98873.27
2019-01-31T13:02:56.573Z,98874.87
2019-01-31T13:05:25.061Z,98874.25
2019-01-31T13:07:53.750Z,98873.44
2019-01-31T13:10:21.911Z,98873.52
2019-01-31T13:12:50.816Z,98871.12
2019-01-31T13:15:18.920Z,98867.67
2019-01-31T13:17:47.078Z,98866.98
2019-01-31T13:20:17.496Z,98864.91
2019-01-31T13:22:45.577Z,98870.48
2019-01-31T13:25:14.319Z,98866.52
2019-01-31T13:27:42.524Z,98870.11
2019-01-31T13:30:13.352Z,98869.01
2019-01-31T13:32:41.425Z,98880.34
2019-01-31T13:35:10.451Z,98872.79
2019-01-31T13:37:38.461Z,98877.02
2019-01-31T13:40:18.333Z,98881.69
2019-01-31T13:42:47.472Z,98880.96
2019-01-31T13:45:17.587Z,98887.03
2019-01-31T13:47:45.765Z,98890.27
2019-01-31T13:50:15.741Z,98897.68
2019-01-31T13:52:44.906Z,98898.45
2019-01-31T13:55:21.975Z,98894.78
2019-01-31T13:57:49.999Z,98895.12
2019-01-31T14:00:18.463Z,98891.48
2019-01-31T14:02:46.558Z,98895.68
2019-01-31T14:05:14.582Z,98891.77
2019-01-31T14:07:42.619Z,98887.02
2019-01-31T14:10:13.250Z,98890.84
2019-01-31T14:12:41.275Z,98890.50
2019-01-31T14:15:09.755Z,98895.80
2019-01-31T14:17:37.647Z,98891.02
2019-01-31T14:20:07.899Z,98889.87
2019-01-31T14:22:42.766Z,98889.45
2019-01-31T14:25:06.867Z,98896.01
2019-01-31T14:27:35.163Z,98895.84
2019-01-31T14:30:06.214Z,98896.34
2019-01-31T14:32:35.314Z,98890.08
2019-01-31T14:35:03.605Z,98890.03
2019-01-31T14:37:32.135Z,98894.06
2019-01-31T14:40:00.009Z,98891.55
2019-01-31T14:42:49.112Z,98895.96
2019-01-31T14:45:17.371Z,98894.77
2019-01-31T14:47:45.290Z,98897.30
2019-01-31T14:50:17.416Z,98901.48
2019-01-31T14:52:45.474Z,98896.19
2019-01-31T14:55:13.437Z,98903.61
2019-01-31T14:57:42.408Z,98901.83
2019-01-31T15:00:13.521Z,98899.73
2019-01-31T15:02:41.457Z,98905.26
2019-01-31T15:05:11.478Z,98903.50
2019-01-31T15:07:39.411Z,98907.31
2019-01-31T15:10:10.587Z,98910.84
2019-01-31T15:12:38.393Z,98908.11
2019-01-31T15:15:16.489Z,98908.55
2019-01-31T15:17:44.457Z,98901.44
2019-01-31T15:20:18.244Z,98905.38
2019-01-31T15:22:46.249Z,98907.24
2019-01-31T15:25:14.259Z,98904.00
2019-01-31T15:27:42.433Z,98905.59
2019-01-31T15:30:13.242Z,98910.08
2019-01-31T15:32:41.539Z,98904.00
2019-01-31T15:35:09.820Z,98909.96
2019-01-31T15:37:37.812Z,98907.40
2019-01-31T15:40:08.712Z,98910.39
2019-01-31T15:42:36.724Z,98912.67
2019-01-31T15:45:05.531Z,98916.09
2019-01-31T15:47:33.517Z,98919.05
2019-01-31T15:50:01.530Z,98919.83
2019-01-31T15:52:30.182Z,98920.64
2019-01-31T15:54:58.237Z,98914.52
2019-01-31T15:57:26.311Z,98916.45
2019-01-31T15:59:54.291Z,98918.92
2019-01-31T16:02:22.375Z,98916.92
2019-01-31T16:04:50.323Z,98923.40
2019-01-31T16:07:18.325Z,98919.40
2019-01-31T16:09:46.277Z,98920.86
2019-01-31T16:12:14.194Z,98919.05
2019-01-31T16:14:42.265Z,98925.06
2019-01-31T16:17:18.422Z,98925.41
2019-01-31T16:19:45.581Z,98924.72
2019-01-31T16:22:13.597Z,98929.61
2019-01-31T16:24:41.560Z,98925.61
2019-01-31T16:27:09.535Z,98928.08
2019-01-31T16:29:37.447Z,98927.53
2019-01-31T16:32:05.625Z,98928.63
2019-01-31T16:34:34.627Z,98924.89
2019-01-31T16:37:02.630Z,98922.67
2019-01-31T16:39:30.591Z,98928.98
2019-01-31T16:41:58.550Z,98931.17
2019-01-31T16:44:26.538Z,98924.28
2019-01-31T16:46:54.668Z,98927.48
2019-01-31T16:49:22.669Z,98921.56
2019-01-31T16:51:50.837Z,98927.34
2019-01-31T16:54:18.782Z,98929.08
2019-01-31T16:56:46.960Z,98932.27
2019-01-31T16:59:15.101Z,98923.38
2019-01-31T17:01:43.126Z,98925.30
2019-01-31T17:04:11.202Z,98920.89
2019-01-31T17:06:39.193Z,98924.34
2019-01-31T17:09:08.598Z,98923.42
2019-01-31T17:11:36.494Z,98922.69
2019-01-31T17:14:04.607Z,98918.88
2019-01-31T17:16:33.441Z,98926.52
2019-01-31T17:19:11.457Z,98922.72
2019-01-31T17:21:39.447Z,98920.80
2019-01-31T17:24:07.236Z,98920.72
2019-01-31T17:26:35.342Z,98920.64
2019-01-31T17:29:03.316Z,98922.29
2019-01-31T17:31:31.138Z,98930.22
2019-01-31T17:33:59.016Z,98933.09
2019-01-31T17:36:27.024Z,98929.27
2019-01-31T17:38:55.100Z,98929.27
2019-01-31T17:41:23.190Z,98924.80
2019-01-31T17:43:51.584Z,98933.09
2019-01-31T17:46:19.840Z,98930.28
2019-01-31T17:48:47.639Z,98937.19
2019-01-31T17:51:17.020Z,98934.91
2019-01-31T17:53:44.964Z,98941.57
2019-01-31T17:56:12.928Z,98937.60
2019-01-31T17:58:40.964Z,98939.27
2019-01-31T18:01:09.754Z,98937.52
2019-01-31T18:03:38.346Z,98934.65
2019-01-31T18:06:06.322Z,98934.29
2019-01-31T18:08:34.554Z,98932.63
2019-01-31T18:11:02.630Z,98932.04
2019-01-31T18:13:30.520Z,98931.34
2019-01-31T18:15:58.680Z,98940.72
2019-01-31T18:18:26.685Z,98935.39
2019-01-31T18:20:59.261Z,98929.32
2019-01-31T18:23:27.224Z,98942.12
2019-01-31T18:25:55.227Z,98934.55
2019-01-31T18:28:23.306Z,98939.40
2019-01-31T18:31:01.787Z,98942.89
2019-01-31T18:33:29.861Z,98948.67
2019-01-31T18:35:57.642Z,98946.52
2019-01-31T18:38:25.560Z,98946.73
2019-01-31T18:40:53.540Z,98951.00
2019-01-31T18:43:21.447Z,98946.23
2019-01-31T18:45:53.363Z,98945.14
2019-01-31T18:48:20.088Z,98947.54
2019-01-31T18:50:48.118Z,98941.02
2019-01-31T18:53:16.148Z,98943.63
2019-01-31T18:55:44.077Z,98946.34
2019-01-31T18:58:12.161Z,98948.48
2019-01-31T19:00:45.849Z,98941.83
2019-01-31T19:03:13.919Z,98939.47
2019-01-31T19:05:41.934Z,98935.55
2019-01-31T19:08:09.936Z,98940.77
2019-01-31T19:10:43.513Z,98937.95
2019-01-31T19:13:07.854Z,98933.59
2019-01-31T19:15:35.925Z,98939.19
2019-01-31T19:18:06.310Z,98938.13
2019-01-31T19:20:36.294Z,98937.42
2019-01-31T19:23:05.901Z,98940.53
2019-01-31T19:25:33.873Z,98937.21
2019-01-31T19:28:01.802Z,98939.70
2019-01-31T19:30:31.995Z,98948.72
2019-01-31T19:33:00.007Z,98944.13
2019-01-31T19:35:28.072Z,98941.63
2019-01-31T19:38:01.917Z,98936.80
2019-01-31T19:40:28.742Z,98940.96
2019-01-31T19:42:56.739Z,98938.72
2019-01-31T19:45:38.512Z,98951.25
2019-01-31T19:48:06.704Z,98944.85
2019-01-31T19:50:34.731Z,98941.30
2019-01-31T19:53:02.759Z,98937.15
2019-01-31T19:55:31.702Z,98937.40
2019-01-31T19:57:59.818Z,98934.55
2019-01-31T20:00:27.801Z,98937.52
2019-01-31T20:02:55.984Z,98928.41
2019-01-31T20:05:24.169Z,98926.39
2019-01-31T20:07:52.580Z,98928.64
2019-01-31T20:10:24.846Z,98929.00
2019-01-31T20:12:53.038Z,98930.89
2019-01-31T20:15:21.536Z,98925.80
2019-01-31T20:17:49.869Z,98942.37
2019-01-31T20:20:22.626Z,98933.28
2019-01-31T20:22:51.737Z,98942.37
2019-01-31T20:25:20.366Z,98928.30
2019-01-31T20:27:48.364Z,98933.73
2019-01-31T20:30:18.902Z,98931.38
2019-01-31T20:32:47.099Z,98932.38
2019-01-31T20:35:15.824Z,98925.99
2019-01-31T20:37:44.742Z,98927.78
2019-01-31T20:40:15.310Z,98924.48
2019-01-31T20:42:43.423Z,98931.61
2019-01-31T20:45:12.531Z,98928.64
2019-01-31T20:47:40.503Z,98933.02
2019-01-31T20:50:12.281Z,98937.88
2019-01-31T20:52:40.413Z,98941.92
2019-01-31T20:55:11.753Z,98933.51
2019-01-31T20:57:39.869Z,98929.84
2019-01-31T21:00:13.741Z,98929.23
2019-01-31T21:02:42.015Z,98932.09
2019-01-31T21:05:10.959Z,98937.05
2019-01-31T21:07:38.956Z,98938.59
2019-01-31T21:10:07.910Z,98938.72
2019-01-31T21:12:35.903Z,98936.93
2019-01-31T21:15:05.657Z,98945.22
2019-01-31T21:17:33.617Z,98940.72
2019-01-31T21:20:01.590Z,98935.27
2019-01-31T21:22:29.471Z,98941.90
2019-01-31T21:24:57.392Z,98938.34
2019-01-31T21:27:25.368Z,98945.83
2019-01-31T21:29:53.320Z,98944.74
2019-01-31T21:32:21.386Z,98943.80
2019-01-31T21:34:49.539Z,98937.99
2019-01-31T21:37:17.530Z,98940.71
2019-01-31T21:39:45.596Z,98941.42
2019-01-31T21:42:13.503Z,98941.77
2019-01-31T21:44:42.261Z,98949.23
2019-01-31T21:47:12.504Z,98945.11
2019-01-31T21:49:40.520Z,98941.90
2019-01-31T21:52:08.769Z,98942.03
2019-01-31T21:54:36.756Z,98948.20
2019-01-31T21:57:05.413Z,98942.61
2019-01-31T21:59:33.435Z,98939.79
2019-01-31T22:02:01.436Z,98931.14
2019-01-31T22:04:29.288Z,98931.38
2019-01-31T22:06:57.175Z,98930.19
2019-01-31T22:09:25.335Z,98935.75
2019-01-31T22:11:53.454Z,98935.88
2019-01-31T22:14:21.221Z,98935.03
2019-01-31T22:16:49.052Z,98945.20
2019-01-31T22:19:16.943Z,98941.41
2019-01-31T22:21:44.895Z,98945.05
2019-01-31T22:24:12.815Z,98938.19
2019-01-31T22:26:41.573Z,98939.95
2019-01-31T22:29:09.448Z,98934.52
2019-01-31T22:31:37.392Z,98933.34
2019-01-31T22:34:05.457Z,98938.75
2019-01-31T22:36:33.476Z,98928.92
2019-01-31T22:39:01.430Z,98931.98
2019-01-31T22:41:29.390Z,98926.17
2019-01-31T22:43:57.363Z,98925.55
2019-01-31T22:46:25.317Z,98941.39
2019-01-31T22:48:53.173Z,98941.87
2019-01-31T22:51:21.071Z,98936.94
2019-01-31T22:53:48.821Z,98932.67
2019-01-31T22:56:16.773Z,98931.24
2019-01-31T22:58:44.660Z,98928.87
2019-01-31T23:01:33.720Z,98930.39
2019-01-31T23:04:08.571Z,98928.52
2019-01-31T23:06:36.560Z,98922.82
2019-01-31T23:09:08.680Z,98924.61
2019-01-31T23:11:36.664Z,98929.81
2019-01-31T23:14:04.792Z,98936.99
2019-01-31T23:16:32.840Z,98927.59
2019-01-31T23:19:00.891Z,98928.31
2019-01-31T23:21:28.738Z,98919.69
2019-01-31T23:23:56.706Z,98920.59
2019-01-31T23:26:24.643Z,98917.95
2019-01-31T23:28:52.523Z,98913.47
2019-01-31T23:31:20.540Z,98911.22
2019-01-31T23:33:48.483Z,98916.07
2019-01-31T23:36:16.505Z,98912.62
2019-01-31T23:38:44.252Z,98911.94
2019-01-31T23:41:12.157Z,98906.34
2019-01-31T23:43:40.192Z,98907.27
2019-01-31T23:46:08.186Z,98910.05
2019-01-31T23:48:36.248Z,98910.27
2019-01-31T23:51:04.357Z,98914.75
2019-01-31T23:53:32.242Z,98910.77
2019-01-31T23:56:00.208Z,98911.35
2019-01-31T23:58:28.141Z,98912.65
